createdAt,value
2019-04-01T00:00:38.156Z,99.90
2019-04-01T00:03:09.334Z,99.90
2019-04-01T00:05:39.463Z,1.00
2019-04-01T00:08:09.703Z,1.00
2019-04-01T00:10:39.840Z,99.90
2019-04-01T00:13:10.492Z,99.90
2019-04-01T00:15:40.778Z,54.50
2019-04-01T00:18:11.178Z,1.00
2019-04-01T00:20:41.185Z,1.00
2019-04-01T00:23:11.334Z,99.90
2019-04-01T00:25:41.713Z,99.90
2019-04-01T00:28:12.991Z,99.90
2019-04-01T00:30:43.002Z,99.90
2019-04-01T00:33:13.460Z,99.90
2019-04-01T00:35:43.720Z,99.90
2019-04-01T00:38:13.718Z,63.00
2019-04-01T00:40:43.794Z,99.90
2019-04-01T00:43:20.986Z,99.90
2019-04-01T00:45:51.532Z,49.30
2019-04-01T00:48:21.841Z,1.00
2019-04-01T00:50:52.697Z,1.00
2019-04-01T00:53:22.760Z,1.00
2019-04-01T00:55:53.401Z,1.00
2019-04-01T00:58:23.477Z,99.90
2019-04-01T01:00:53.740Z,1.00
2019-04-01T01:03:24.085Z,1.00
2019-04-01T01:05:54.490Z,99.90
2019-04-01T01:08:24.554Z,99.90
2019-04-01T01:10:54.560Z,1.00
2019-04-01T01:13:24.561Z,1.00
2019-04-01T01:15:54.562Z,1.00
2019-04-01T01:18:24.555Z,77.50
2019-04-01T01:20:54.574Z,99.90
2019-04-01T01:23:24.915Z,99.90
2019-04-01T01:25:55.001Z,99.90
2019-04-01T01:28:25.282Z,99.90
2019-04-01T01:30:55.535Z,99.90
2019-04-01T01:33:25.819Z,99.90
2019-04-01T01:35:55.817Z,99.90
2019-04-01T01:38:25.817Z,99.90
2019-04-01T01:40:56.401Z,99.90
2019-04-01T01:43:26.386Z,1.00
2019-04-01T01:45:56.404Z,1.00
2019-04-01T01:48:26.399Z,4.10
2019-04-01T01:50:57.298Z,1.00
2019-04-01T01:53:27.396Z,1.00
2019-04-01T01:55:57.788Z,1.00
2019-04-01T01:58:28.053Z,1.00
2019-04-01T02:00:58.209Z,5.70
2019-04-01T02:03:28.280Z,99.90
2019-04-01T02:05:58.578Z,99.90
2019-04-01T02:08:28.894Z,99.90
2019-04-01T02:10:58.912Z,99.90
2019-04-01T02:13:28.916Z,99.90
2019-04-01T02:15:58.924Z,99.90
2019-04-01T02:18:29.255Z,99.90
2019-04-01T02:20:59.278Z,99.90
2019-04-01T02:23:29.553Z,99.90
2019-04-01T02:25:59.840Z,99.90
2019-04-01T02:28:29.908Z,99.90
2019-04-01T02:30:59.926Z,99.90
2019-04-01T02:33:30.597Z,99.90
2019-04-01T02:36:00.593Z,1.00
2019-04-01T02:38:31.149Z,9.00
2019-04-01T02:41:01.580Z,77.50
2019-04-01T02:43:31.585Z,99.90
2019-04-01T02:46:01.859Z,99.90
2019-04-01T02:48:31.859Z,99.90
2019-04-01T02:51:02.179Z,99.90
2019-04-01T02:53:32.481Z,99.90
2019-04-01T02:56:02.843Z,99.90
2019-04-01T02:58:32.848Z,99.90
2019-04-01T03:01:03.267Z,1.00
2019-04-01T03:03:33.259Z,50.60
2019-04-01T03:06:03.410Z,99.90
2019-04-01T03:08:33.483Z,73.40
2019-04-01T03:11:03.555Z,1.00
2019-04-01T03:13:33.546Z,1.00
2019-04-01T03:16:03.691Z,1.00
2019-04-01T03:18:33.713Z,66.50
2019-04-01T03:21:03.784Z,1.00
2019-04-01T03:23:33.769Z,1.00
2019-04-01T03:26:03.861Z,1.00
2019-04-01T03:28:33.858Z,1.00
2019-04-01T03:31:04.043Z,69.00
2019-04-01T03:33:34.427Z,68.90
2019-04-01T03:36:04.507Z,72.30
2019-04-01T03:38:34.828Z,77.30
2019-04-01T03:41:05.150Z,99.90
2019-04-01T03:43:35.150Z,99.90
2019-04-01T03:46:05.157Z,99.90
2019-04-01T03:48:35.518Z,1.00
2019-04-01T03:51:05.605Z,99.90
2019-04-01T03:53:36.201Z,97.60
2019-04-01T03:56:06.394Z,86.40
2019-04-01T03:58:36.382Z,99.90
2019-04-01T04:01:06.523Z,1.00
2019-04-01T04:03:36.932Z,1.00
2019-04-01T04:06:07.611Z,1.00
2019-04-01T04:08:37.909Z,1.00
2019-04-01T04:11:07.985Z,1.00
2019-04-01T04:13:38.056Z,2.00
2019-04-01T04:16:08.054Z,1.00
2019-04-01T04:18:38.124Z,1.00
2019-04-01T04:21:08.508Z,1.00
2019-04-01T04:23:38.497Z,91.80
2019-04-01T04:26:08.591Z,99.90
2019-04-01T04:28:38.593Z,99.90
2019-04-01T04:31:08.738Z,1.00
2019-04-01T04:33:39.017Z,1.00
2019-04-01T04:36:09.025Z,99.90
2019-04-01T04:38:39.107Z,99.90
2019-04-01T04:41:09.110Z,1.00
2019-04-01T04:43:39.398Z,1.00
2019-04-01T04:46:09.398Z,1.00
2019-04-01T04:48:39.409Z,1.00
2019-04-01T04:51:09.394Z,1.00
2019-04-01T04:53:40.247Z,99.90
2019-04-01T04:56:10.260Z,1.00
2019-04-01T04:58:40.855Z,1.00
2019-04-01T05:01:11.221Z,99.90
2019-04-01T05:03:41.595Z,99.90
2019-04-01T05:06:11.900Z,99.90
2019-04-01T05:08:41.891Z,14.80
2019-04-01T05:11:11.896Z,1.00
2019-04-01T05:13:41.916Z,99.90
2019-04-01T05:16:12.959Z,99.90
2019-04-01T05:18:43.200Z,99.90
2019-04-01T05:21:15.860Z,26.80
2019-04-01T05:23:47.733Z,15.50
2019-04-01T05:26:20.832Z,1.00
2019-04-01T05:28:51.797Z,99.90
2019-04-01T05:31:25.582Z,99.90
2019-04-01T05:33:58.922Z,99.90
2019-04-01T05:36:31.578Z,65.40
2019-04-01T05:39:01.663Z,90.00
2019-04-01T05:41:32.277Z,1.00
2019-04-01T05:44:03.230Z,99.90
2019-04-01T05:46:33.685Z,94.40
2019-04-01T05:49:04.179Z,98.80
2019-04-01T05:51:34.338Z,99.90
2019-04-01T05:54:04.626Z,1.00
2019-04-01T05:56:34.767Z,99.90
2019-04-01T05:59:04.834Z,99.90
2019-04-01T06:01:38.866Z,99.90
2019-04-01T06:04:09.033Z,99.90
2019-04-01T06:06:39.561Z,1.00
2019-04-01T06:09:10.548Z,1.00
2019-04-01T06:11:40.972Z,1.00
2019-04-01T06:14:11.133Z,1.00
2019-04-01T06:16:41.489Z,1.00
2019-04-01T06:19:11.642Z,1.00
2019-04-01T06:21:41.781Z,1.00
2019-04-01T06:24:11.870Z,1.00
2019-04-01T06:26:42.271Z,99.90
2019-04-01T06:29:13.030Z,99.90
2019-04-01T06:31:43.110Z,99.90
2019-04-01T06:34:13.257Z,99.90
2019-04-01T06:36:43.717Z,99.90
2019-04-01T06:39:13.783Z,10.40
2019-04-01T06:41:44.773Z,1.00
2019-04-01T06:44:14.873Z,1.00
2019-04-01T06:46:45.210Z,1.00
2019-04-01T06:49:15.269Z,1.00
2019-04-01T06:51:45.747Z,1.00
2019-04-01T06:54:15.823Z,1.00
2019-04-01T06:56:46.176Z,1.00
2019-04-01T06:59:16.327Z,1.00
2019-04-01T07:01:46.463Z,1.00
2019-04-01T07:04:16.658Z,1.00
2019-04-01T07:06:47.078Z,1.00
2019-04-01T07:09:17.222Z,1.00
2019-04-01T07:11:47.520Z,1.00
2019-04-01T07:14:17.591Z,1.00
2019-04-01T07:16:47.729Z,1.00
2019-04-01T07:19:18.087Z,1.00
2019-04-01T07:21:48.242Z,99.90
2019-04-01T07:24:18.503Z,99.90
2019-04-01T07:26:48.653Z,99.90
2019-04-01T07:29:18.809Z,99.90
2019-04-01T07:31:49.778Z,99.90
2019-04-01T07:34:20.129Z,99.90
2019-04-01T07:36:50.534Z,99.90
2019-04-01T07:39:20.760Z,99.90
2019-04-01T07:41:50.902Z,99.90
2019-04-01T07:44:21.611Z,99.90
2019-04-01T07:46:53.325Z,99.90
2019-04-01T07:49:23.407Z,99.90
2019-04-01T07:51:53.563Z,99.90
2019-04-01T07:54:23.672Z,99.90
2019-04-01T07:56:53.816Z,99.90
2019-04-01T07:59:24.294Z,99.90
2019-04-01T08:01:54.729Z,99.90
2019-04-01T08:04:24.899Z,99.90
2019-04-01T08:06:55.039Z,99.90
2019-04-01T08:09:25.476Z,99.90
2019-04-01T08:11:55.737Z,99.90
2019-04-01T08:14:26.446Z,99.90
2019-04-01T08:16:58.593Z,99.90
2019-04-01T08:19:28.442Z,99.90
2019-04-01T08:21:58.865Z,99.90
2019-04-01T08:24:28.901Z,99.90
2019-04-01T08:26:59.028Z,99.90
2019-04-01T08:29:30.717Z,99.90
2019-04-01T08:32:01.101Z,99.90
2019-04-01T08:34:31.578Z,99.90
2019-04-01T08:37:01.729Z,99.90
2019-04-01T08:39:32.464Z,99.90
2019-04-01T08:42:03.170Z,99.90
2019-04-01T08:44:33.666Z,99.90
2019-04-01T08:47:04.085Z,99.90
2019-04-01T08:49:34.559Z,99.90
2019-04-01T08:52:05.078Z,99.90
2019-04-01T08:54:35.241Z,99.90
2019-04-01T08:57:05.467Z,99.90
2019-04-01T08:59:36.108Z,99.90
2019-04-01T09:02:17.268Z,99.90
2019-04-01T09:04:38.409Z,99.90
2019-04-01T09:07:08.492Z,99.90
2019-04-01T09:09:39.486Z,99.90
2019-04-01T09:12:10.148Z,99.90
2019-04-01T09:14:40.719Z,99.90
2019-04-01T09:17:11.153Z,99.90
2019-04-01T09:19:41.419Z,99.90
2019-04-01T09:22:11.657Z,99.90
2019-04-01T09:24:41.750Z,99.90
2019-04-01T09:27:11.916Z,99.90
2019-04-01T09:29:41.928Z,99.90
2019-04-01T09:32:12.084Z,99.90
2019-04-01T09:34:42.119Z,99.90
2019-04-01T09:37:12.133Z,99.90
2019-04-01T09:39:42.321Z,99.90
2019-04-01T09:42:12.322Z,99.90
2019-04-01T09:44:42.423Z,99.90
2019-04-01T09:47:12.443Z,99.90
2019-04-01T09:49:42.598Z,99.90
2019-04-01T09:52:12.684Z,99.90
2019-04-01T09:54:43.034Z,99.90
2019-04-01T09:57:17.879Z,99.90
2019-04-01T09:59:45.073Z,99.90
2019-04-01T10:02:15.692Z,99.90
2019-04-01T10:04:45.837Z,99.90
2019-04-01T10:07:15.929Z,99.90
2019-04-01T10:09:46.099Z,99.90
2019-04-01T10:12:16.204Z,99.90
2019-04-01T10:14:46.506Z,99.90
2019-04-01T10:17:16.583Z,99.90
2019-04-01T10:19:46.863Z,99.90
2019-04-01T10:22:16.890Z,99.90
2019-04-01T10:24:47.007Z,99.90
2019-04-01T10:27:17.159Z,99.90
2019-04-01T10:29:47.261Z,99.90
2019-04-01T10:32:17.281Z,99.90
2019-04-01T10:34:47.386Z,99.90
2019-04-01T10:37:17.392Z,99.90
2019-04-01T10:39:47.571Z,99.90
2019-04-01T10:42:17.865Z,99.90
2019-04-01T10:44:48.040Z,99.90
2019-04-01T10:47:18.461Z,99.90
2019-04-01T10:49:48.472Z,99.90
2019-04-01T10:52:18.474Z,99.90
2019-04-01T10:54:48.575Z,99.90
2019-04-01T10:57:18.581Z,99.90
2019-04-01T10:59:48.601Z,99.90
2019-04-01T11:02:18.863Z,99.90
2019-04-01T11:04:49.335Z,99.90
2019-04-01T11:07:19.515Z,99.90
2019-04-01T11:09:49.593Z,99.90
2019-04-01T11:12:19.748Z,99.90
2019-04-01T11:14:49.902Z,99.90
2019-04-01T11:17:19.970Z,97.80
2019-04-01T11:19:49.987Z,96.00
2019-04-01T11:22:20.065Z,95.50
2019-04-01T11:24:50.733Z,95.40
2019-04-01T11:27:21.134Z,95.70
2019-04-01T11:29:51.510Z,95.60
2019-04-01T11:32:21.884Z,95.50
2019-04-01T11:34:51.899Z,95.70
2019-04-01T11:37:22.023Z,96.20
2019-04-01T11:39:52.199Z,96.20
2019-04-01T11:42:23.167Z,95.60
2019-04-01T11:44:53.881Z,95.80
2019-04-01T11:47:24.022Z,95.90
2019-04-01T11:49:54.125Z,96.20
2019-04-01T11:52:24.325Z,96.20
2019-04-01T11:54:54.291Z,96.50
2019-04-01T11:57:24.372Z,96.20
2019-04-01T11:59:54.676Z,96.10
2019-04-01T12:02:24.831Z,96.20
2019-04-01T12:04:54.905Z,96.30
2019-04-01T12:07:25.031Z,97.00
2019-04-01T12:09:56.094Z,96.60
2019-04-01T12:12:26.212Z,96.70
2019-04-01T12:14:56.652Z,95.10
2019-04-01T12:17:26.737Z,95.90
2019-04-01T12:19:56.739Z,96.70
2019-04-01T12:22:26.749Z,96.30
2019-04-01T12:24:56.749Z,96.40
2019-04-01T12:27:27.055Z,96.30
2019-04-01T12:29:57.446Z,96.50
2019-04-01T12:32:27.454Z,95.90
2019-04-01T12:34:57.911Z,95.00
2019-04-01T12:37:30.043Z,87.30
2019-04-01T12:40:00.378Z,89.40
2019-04-01T12:42:30.530Z,79.50
2019-04-01T12:45:00.529Z,77.30
2019-04-01T12:47:30.858Z,79.30
2019-04-01T12:50:01.188Z,83.80
2019-04-01T12:52:31.283Z,76.60
2019-04-01T12:55:01.497Z,75.60
2019-04-01T12:57:31.931Z,74.80
2019-04-01T13:00:02.163Z,70.70
2019-04-01T13:02:32.178Z,75.60
2019-04-01T13:05:02.201Z,67.50
2019-04-01T13:07:32.812Z,74.50
2019-04-01T13:10:02.916Z,68.80
2019-04-01T13:12:33.183Z,70.00
2019-04-01T13:15:03.334Z,71.00
2019-04-01T13:17:33.342Z,70.40
2019-04-01T13:20:03.336Z,63.70
2019-04-01T13:22:33.509Z,69.90
2019-04-01T13:25:05.786Z,69.20
2019-04-01T13:27:35.477Z,63.90
2019-04-01T13:30:06.365Z,65.70
2019-04-01T13:32:36.479Z,66.30
2019-04-01T13:35:07.604Z,69.30
2019-04-01T13:37:37.618Z,69.30
2019-04-01T13:40:08.560Z,60.90
2019-04-01T13:42:38.577Z,64.50
2019-04-01T13:45:08.746Z,65.70
2019-04-01T13:47:41.261Z,64.50
2019-04-01T13:50:11.069Z,64.90
2019-04-01T13:52:41.071Z,64.80
2019-04-01T13:55:11.330Z,63.30
2019-04-01T13:57:42.002Z,63.80
2019-04-01T14:00:13.237Z,64.30
2019-04-01T14:02:43.323Z,61.80
2019-04-01T14:05:13.478Z,61.00
2019-04-01T14:07:43.569Z,64.30
2019-04-01T14:10:13.876Z,63.50
2019-04-01T14:12:43.946Z,60.60
2019-04-01T14:15:14.165Z,65.60
2019-04-01T14:17:44.266Z,62.30
2019-04-01T14:20:14.510Z,59.20
2019-04-01T14:22:44.652Z,59.00
2019-04-01T14:25:14.760Z,58.10
2019-04-01T14:27:44.924Z,61.50
2019-04-01T14:30:15.166Z,60.30
2019-04-01T14:32:45.589Z,59.50
2019-04-01T14:35:15.651Z,75.90
2019-04-01T14:37:45.665Z,58.80
2019-04-01T14:40:17.697Z,59.80
2019-04-01T14:42:47.791Z,58.80
2019-04-01T14:45:18.228Z,60.80
2019-04-01T14:47:57.177Z,59.30
2019-04-01T14:50:20.427Z,67.20
2019-04-01T14:52:50.418Z,61.20
2019-04-01T14:55:20.499Z,64.60
2019-04-01T14:57:50.517Z,63.80
2019-04-01T15:00:20.956Z,62.00
2019-04-01T15:02:51.376Z,67.20
2019-04-01T15:05:21.518Z,63.50
2019-04-01T15:07:51.516Z,65.50
2019-04-01T15:10:21.654Z,66.90
2019-04-01T15:13:04.447Z,62.50
2019-04-01T15:15:23.510Z,67.10
2019-04-01T15:17:53.591Z,66.70
2019-04-01T15:20:23.744Z,67.80
2019-04-01T15:22:53.756Z,70.90
2019-04-01T15:25:24.115Z,68.10
2019-04-01T15:27:54.155Z,69.40
2019-04-01T15:30:24.154Z,74.20
2019-04-01T15:32:54.476Z,73.90
2019-04-01T15:35:24.556Z,72.20
2019-04-01T15:37:54.561Z,69.90
2019-04-01T15:40:24.631Z,67.60
2019-04-01T15:42:54.643Z,68.10
2019-04-01T15:45:24.640Z,72.70
2019-04-01T15:47:54.981Z,74.80
2019-04-01T15:50:28.876Z,84.30
2019-04-01T15:52:57.486Z,87.80
2019-04-01T15:55:27.633Z,91.60
2019-04-01T15:57:57.656Z,82.80
2019-04-01T16:00:27.673Z,80.30
2019-04-01T16:02:57.702Z,84.60
2019-04-01T16:05:30.470Z,86.70
2019-04-01T16:07:59.520Z,86.50
2019-04-01T16:10:29.941Z,90.10
2019-04-01T16:12:59.962Z,89.50
2019-04-01T16:15:32.055Z,91.60
2019-04-01T16:18:02.372Z,89.30
2019-04-01T16:20:34.220Z,93.70
2019-04-01T16:23:04.417Z,96.30
2019-04-01T16:25:37.457Z,95.50
2019-04-01T16:28:06.736Z,96.50
2019-04-01T16:30:36.817Z,96.50
2019-04-01T16:33:07.677Z,96.60
2019-04-01T16:35:37.839Z,96.60
2019-04-01T16:38:07.883Z,96.60
2019-04-01T16:40:37.922Z,96.30
2019-04-01T16:43:07.972Z,95.90
2019-04-01T16:45:38.476Z,95.80
2019-04-01T16:48:09.435Z,95.60
2019-04-01T16:50:39.826Z,95.30
2019-04-01T16:53:09.914Z,96.00
2019-04-01T16:55:40.075Z,95.40
2019-04-01T16:58:10.233Z,95.30
2019-04-01T17:00:40.619Z,95.10
2019-04-01T17:03:13.303Z,95.80
2019-04-01T17:05:42.517Z,95.10
2019-04-01T17:08:12.782Z,95.00
2019-04-01T17:10:42.793Z,95.10
2019-04-01T17:13:12.968Z,94.80
2019-04-01T17:15:43.051Z,95.00
2019-04-01T17:18:13.147Z,94.70
2019-04-01T17:20:43.962Z,94.70
2019-04-01T17:23:14.136Z,94.80
2019-04-01T17:25:44.298Z,95.10
2019-04-01T17:28:14.325Z,94.80
2019-04-01T17:30:44.343Z,95.20
2019-04-01T17:33:14.577Z,95.10
2019-04-01T17:35:45.169Z,95.30
2019-04-01T17:38:15.277Z,94.80
2019-04-01T17:40:45.359Z,94.50
2019-04-01T17:43:16.488Z,94.30
2019-04-01T17:45:47.069Z,94.50
2019-04-01T17:48:17.491Z,94.30
2019-04-01T17:50:47.589Z,94.30
2019-04-01T17:53:17.614Z,94.40
2019-04-01T17:55:48.454Z,94.10
2019-04-01T17:58:18.750Z,94.10
2019-04-01T18:01:00.235Z,94.30
2019-04-01T18:03:30.335Z,94.10
2019-04-01T18:06:00.431Z,94.20
2019-04-01T18:08:30.799Z,94.40
2019-04-01T18:11:00.815Z,94.00
2019-04-01T18:13:31.086Z,93.90
2019-04-01T18:16:01.275Z,94.00
2019-04-01T18:18:33.911Z,93.80
2019-04-01T18:21:03.436Z,93.80
2019-04-01T18:23:33.761Z,93.80
2019-04-01T18:26:03.789Z,93.80
2019-04-01T18:28:33.816Z,94.10
2019-04-01T18:31:04.097Z,94.50
2019-04-01T18:33:34.409Z,95.30
2019-04-01T18:36:04.830Z,95.70
2019-04-01T18:38:35.238Z,96.90
2019-04-01T18:41:05.610Z,98.70
2019-04-01T18:43:35.993Z,99.30
2019-04-01T18:46:06.380Z,99.90
2019-04-01T18:48:36.396Z,99.90
2019-04-01T18:51:06.498Z,99.90
2019-04-01T18:53:36.874Z,99.90
2019-04-01T18:56:06.969Z,99.90
2019-04-01T18:58:36.987Z,99.90
2019-04-01T19:01:07.438Z,99.90
2019-04-01T19:03:38.197Z,99.90
2019-04-01T19:06:09.281Z,99.90
2019-04-01T19:08:39.372Z,99.90
2019-04-01T19:11:10.209Z,99.90
2019-04-01T19:13:42.239Z,99.90
2019-04-01T19:16:16.209Z,99.90
2019-04-01T19:18:44.473Z,99.90
2019-04-01T19:21:14.784Z,99.90
2019-04-01T19:23:45.072Z,99.90
2019-04-01T19:26:15.175Z,99.90
2019-04-01T19:28:47.070Z,99.90
2019-04-01T19:31:17.253Z,99.90
2019-04-01T19:33:47.588Z,99.90
2019-04-01T19:36:17.622Z,99.90
2019-04-01T19:38:47.718Z,99.90
2019-04-01T19:41:18.103Z,99.90
2019-04-01T19:43:51.046Z,99.90
2019-04-01T19:46:20.050Z,99.90
2019-04-01T19:48:51.170Z,99.90
2019-04-01T19:51:21.701Z,99.90
2019-04-01T19:53:52.382Z,99.90
2019-04-01T19:56:23.473Z,99.90
2019-04-01T19:58:54.430Z,99.90
2019-04-01T20:01:24.945Z,99.90
2019-04-01T20:03:55.195Z,99.90
2019-04-01T20:06:25.997Z,99.90
2019-04-01T20:08:56.332Z,99.90
2019-04-01T20:11:26.908Z,99.90
2019-04-01T20:13:57.217Z,99.90
2019-04-01T20:16:27.258Z,99.90
2019-04-01T20:18:57.359Z,99.90
2019-04-01T20:21:28.278Z,99.90
2019-04-01T20:23:58.795Z,99.90
2019-04-01T20:26:28.956Z,99.90
2019-04-01T20:28:59.307Z,99.90
2019-04-01T20:31:29.416Z,99.90
2019-04-01T20:33:59.422Z,99.90
2019-04-01T20:36:31.272Z,99.90
2019-04-01T20:39:01.782Z,99.90
2019-04-01T20:41:32.130Z,99.90
2019-04-01T20:44:02.146Z,99.90
2019-04-01T20:46:32.250Z,99.90
2019-04-01T20:49:02.501Z,99.90
2019-04-01T20:51:32.954Z,99.90
2019-04-01T20:54:03.046Z,99.90
2019-04-01T20:56:34.028Z,99.90
2019-04-01T20:59:04.421Z,99.90
2019-04-01T21:01:35.270Z,99.90
2019-04-01T21:04:05.771Z,99.90
2019-04-01T21:06:35.961Z,99.90
2019-04-01T21:09:09.621Z,99.90
2019-04-01T21:11:40.073Z,99.90
2019-04-01T21:14:10.413Z,99.90
2019-04-01T21:16:40.459Z,99.90
2019-04-01T21:19:10.483Z,99.90
2019-04-01T21:21:40.838Z,99.90
2019-04-01T21:24:11.190Z,99.90
2019-04-01T21:26:42.095Z,99.90
2019-04-01T21:29:12.527Z,99.90
2019-04-01T21:31:42.622Z,99.90
2019-04-01T21:34:12.898Z,99.90
2019-04-01T21:36:42.941Z,99.90
2019-04-01T21:39:13.034Z,99.90
2019-04-01T21:41:43.467Z,99.90
2019-04-01T21:44:13.642Z,99.90
2019-04-01T21:46:43.868Z,99.90
2019-04-01T21:49:14.011Z,99.90
2019-04-01T21:51:44.336Z,99.90
2019-04-01T21:54:14.466Z,99.90
2019-04-01T21:56:44.555Z,99.90
2019-04-01T21:59:14.975Z,99.90
2019-04-01T22:01:46.216Z,99.90
2019-04-01T22:04:16.405Z,99.90
2019-04-01T22:06:46.570Z,99.90
2019-04-01T22:09:16.946Z,99.90
2019-04-01T22:11:47.016Z,99.90
2019-04-01T22:14:17.743Z,99.90
2019-04-01T22:16:48.225Z,99.90
2019-04-01T22:19:18.566Z,99.90
2019-04-01T22:21:48.654Z,99.90
2019-04-01T22:24:18.845Z,99.90
2019-04-01T22:26:48.862Z,99.90
2019-04-01T22:29:19.938Z,99.90
2019-04-01T22:31:50.420Z,99.90
2019-04-01T22:34:21.147Z,99.90
2019-04-01T22:36:51.163Z,99.90
2019-04-01T22:39:26.951Z,99.90
2019-04-01T22:41:52.989Z,99.90
2019-04-01T22:44:23.818Z,99.90
2019-04-01T22:46:53.845Z,99.90
2019-04-01T22:49:24.227Z,99.90
2019-04-01T22:51:54.228Z,99.90
2019-04-01T22:54:24.283Z,99.90
2019-04-01T22:56:55.140Z,99.90
2019-04-01T22:59:25.920Z,99.90
2019-04-01T23:01:55.997Z,99.90
2019-04-01T23:04:26.027Z,99.90
2019-04-01T23:06:56.065Z,99.90
2019-04-01T23:09:26.669Z,99.90
2019-04-01T23:11:56.991Z,99.90
2019-04-01T23:14:27.086Z,99.90
2019-04-01T23:16:58.161Z,99.90
2019-04-01T23:19:28.206Z,99.90
2019-04-01T23:21:58.210Z,99.90
2019-04-01T23:24:28.713Z,99.90
2019-04-01T23:26:58.678Z,99.90
2019-04-01T23:29:29.183Z,99.90
2019-04-01T23:31:59.522Z,99.90
2019-04-01T23:34:29.955Z,99.90
2019-04-01T23:37:00.373Z,99.90
2019-04-01T23:39:30.767Z,99.90
2019-04-01T23:42:00.804Z,99.90
2019-04-01T23:44:30.803Z,99.90
2019-04-01T23:47:00.833Z,99.90
2019-04-01T23:49:30.847Z,99.90
2019-04-01T23:52:00.875Z,99.90
2019-04-01T23:54:31.570Z,99.90
2019-04-01T23:57:01.738Z,99.90
2019-04-01T23:59:31.749Z,99.90
